Flight Track Log - Related Links

Times and Time Zones

All times are in EDT time to prevent confusion due to time zone crossing. See the DAL4165 flight status page for this flight to view local times or setup timezone preferences in your user account.

Time Position Orientation Groundspeed Altitude Reporting Facility
EDT Latitude Longitude Course Direction KTS MPH feet Rate Location/Type
Fri 07:29:32 AM 42.9500 -71.4167 10° North 156 180 1,100  Level KA90
Fri 07:30:44 AM 43.0167 -71.4000 10° North 203 234 3,700 2,406 Climbing KA90
Fri 07:32:39 AM 43.0639 -71.5619 292° West 268 308 8,600 2,263 Climbing Boston Center
Fri 07:33:39 AM 43.0919 -71.6811 288° West 288 331 10,300 1,750 Climbing Boston Center
Fri 07:34:39 AM 43.0967 -71.8003 273° West 329 379 12,100 2,000 Climbing Boston Center
Fri 07:35:39 AM 43.1036 -71.9453 274° West 357 411 14,300 2,000 Climbing Boston Center
Fri 07:36:39 AM 43.1064 -72.0647 272° West 352 405 16,100 1,750 Climbing Boston Center
Fri 07:37:39 AM 43.1131 -72.2125 274° West 347 399 17,800 1,500 Climbing Boston Center
Fri 07:38:39 AM 43.1214 -72.3461 275° West 353 406 19,100 1,250 Climbing Boston Center
Fri 07:39:39 AM 43.1278 -72.4828 274° West 353 406 20,300 1,200 Climbing Boston Center
Fri 07:40:39 AM 43.1317 -72.6222 272° West 363 418 21,500 1,150 Climbing Boston Center
Fri 07:41:39 AM 43.1272 -72.7586 267° West 363 418 22,600 1,050 Climbing Boston Center
Fri 07:42:39 AM 43.1289 -72.8953 271° West 363 418 23,600 950 Climbing Boston Center
Fri 07:43:39 AM 43.1347 -73.0206 274° West 363 418 24,500 950 Climbing Boston Center
Fri 07:44:39 AM 43.1381 -73.1600 272° West 363 418 25,500 950 Climbing Boston Center
Fri 07:45:39 AM 43.1411 -73.2967 272° West 363 418 26,400 750 Climbing Boston Center
Fri 07:46:39 AM 43.1419 -73.4475 270° West 363 418 27,000 550 Climbing Boston Center
Fri 07:47:39 AM 43.1428 -73.5897 271° West 368 423 27,500 450 Climbing Boston Center
Fri 07:48:39 AM 43.1458 -73.7092 272° West 375 432 27,900 450 Climbing Boston Center
Fri 07:49:39 AM 43.1478 -73.8744 271° West 390 449 28,400 500 Climbing Boston Center
Fri 07:50:39 AM 43.1500 -74.0253 271° West 390 449 28,900 500 Climbing Boston Center
Fri 07:51:39 AM 43.1522 -74.1733 271° West 390 449 29,400 500 Climbing Boston Center
Fri 07:52:39 AM 43.1539 -74.3242 271° West 395 455 29,900 500 Climbing Boston Center
Fri 07:53:39 AM 43.1556 -74.4722 271° West 395 455 30,400 500 Climbing Boston Center
Fri 07:54:39 AM 43.1569 -74.6261 271° West 400 460 30,900 500 Climbing Boston Center
Fri 07:55:39 AM 43.1600 -74.7800 272° West 405 466 31,400 500 Climbing Boston Center
Fri 07:56:39 AM 43.1589 -74.9336 269° West 405 466 31,900 300 Climbing Boston Center
Fri 07:57:39 AM 43.1594 -75.0872 270° West 405 466 32,000 50 Climbing Boston Center
Fri 07:58:39 AM 43.1600 -75.2439 270° West 410 472 32,000  Level Boston Center
Fri 07:59:39 AM 43.1597 -75.4233 270° West 420 483 32,000  Level Boston Center
Fri 08:00:39 AM 43.1636 -75.5828 272° West 420 483 32,000  Level Boston Center
Fri 08:01:39 AM 43.1611 -75.7478 269° West 425 489 32,000  Level Boston Center
Fri 08:02:39 AM 43.1625 -75.9075 271° West 425 489 32,000  Level Boston Center
Fri 08:04:43 AM 43.1581 -76.2339 269° West 422 486 32,000  Level Cleveland Center
Fri 08:05:43 AM 43.1453 -76.4000 264° West 428 493 32,000  Level Cleveland Center
Fri 08:06:43 AM 43.1303 -76.5633 263° West 428 493 32,000  Level Cleveland Center
Fri 08:07:43 AM 43.1136 -76.7436 263° West 428 493 32,000  Level Cleveland Center
Fri 08:08:43 AM 43.0981 -76.9067 263° West 433 498 32,000  Level Cleveland Center
Fri 08:09:43 AM 43.0864 -77.0694 264° West 433 498 32,000  Level Cleveland Center
Fri 08:10:43 AM 43.0703 -77.2322 262° West 433 498 32,000  Level Cleveland Center
Fri 08:11:43 AM 43.0542 -77.3981 262° West 433 498 32,000  Level Cleveland Center
Fri 08:12:43 AM 43.0397 -77.5608 263° West 433 498 32,000  Level Cleveland Center
Fri 08:13:43 AM 43.0231 -77.7233 262° West 438 504 32,000  Level Cleveland Center
Fri 08:14:43 AM 43.0081 -77.8858 263° West 438 504 32,000  Level Cleveland Center
Fri 08:15:43 AM 42.9911 -78.0514 262° West 444 511 32,000  Level Cleveland Center
Fri 08:16:43 AM 42.9736 -78.2167 262° West 444 511 32,000  Level Cleveland Center
Fri 08:17:43 AM 42.9561 -78.3819 262° West 451 519 32,000  Level Cleveland Center
Fri 08:18:43 AM 42.9403 -78.5469 263° West 446 513 32,000  Level Cleveland Center
Fri 08:19:43 AM 42.9203 -78.7119 261° West 446 513 32,000  Level Cleveland Center
Fri 08:20:43 AM 42.8978 -78.8772 260° West 446 513 32,000  Level Cleveland Center
Fri 08:21:43 AM 42.8708 -79.0422 257° West 446 513 32,000  Level Cleveland Center
Fri 08:22:43 AM 42.8500 -79.2069 260° West 446 513 32,000  Level Cleveland Center
Fri 08:23:43 AM 42.8289 -79.3686 260° West 451 519 32,000  Level Cleveland Center
Fri 08:24:43 AM 42.8036 -79.5361 258° West 451 519 32,000  Level Cleveland Center
Fri 08:25:43 AM 42.7778 -79.7006 258° West 451 519 32,000 -50 Level Cleveland Center
Fri 08:26:43 AM 42.7539 -79.8650 259° West 451 519 31,900 -800 Descending Cleveland Center
Fri 08:27:43 AM 42.7425 -80.0375 265° West 451 519 30,400 -1,450 Descending Cleveland Center
Fri 08:28:43 AM 42.7369 -80.2186 268° West 467 537 29,000 -1,200 Descending Cleveland Center
Fri 08:29:43 AM 42.7269 -80.3911 266° West 472 543 28,000 -500 Descending Cleveland Center
Fri 08:30:43 AM 42.7208 -80.5578 267° West 462 532 28,000  Level Cleveland Center
Fri 08:31:43 AM 42.7122 -80.7272 266° West 457 526 28,000 -350 Level Cleveland Center
Fri 08:32:43 AM 42.7058 -80.8969 267° West 457 526 27,300 -1,100 Descending Cleveland Center
Fri 08:33:43 AM 42.6864 -81.0661 261° West 462 532 25,800 -1,500 Descending Cleveland Center
Fri 08:34:43 AM 42.6689 -81.2269 262° West 450 518 24,300 -1,350 Descending Cleveland Center
Fri 08:35:43 AM 42.6533 -81.3653 261° West 428 493 23,100 -1,150 Descending Cleveland Center
Fri 08:36:43 AM 42.6336 -81.5200 260° West 418 481 22,000 -550 Descending Cleveland Center
Fri 08:37:43 AM 42.6156 -81.6722 261° West 412 474 22,000  Level Cleveland Center
Fri 08:38:43 AM 42.5972 -81.8297 261° West 424 488 22,000 -900 Level Cleveland Center
Fri 08:39:43 AM 42.5767 -81.9903 260° West 430 495 20,200 -2,050 Descending Cleveland Center
Fri 08:40:43 AM 42.5578 -82.1503 261° West 435 501 17,900 -2,250 Descending Cleveland Center
Fri 08:41:43 AM 42.5392 -82.2964 260° West 417 480 15,700 -2,250 Descending Cleveland Center
Fri 08:42:43 AM 42.5203 -82.4453 260° West 405 466 13,400 -1,850 Descending Cleveland Center
Fri 08:43:43 AM 42.4928 -82.5936 256° West 386 444 12,000 -700 Descending Cleveland Center
Fri 08:44:43 AM 42.4467 -82.7189 244° Southwest 381 438 12,000  Level Cleveland Center
Fri 08:45:49 AM 42.3958 -82.8606 244° Southwest 369 425 12,000  Level Cleveland Center
Fri 08:46:50 AM 42.3539 -82.9828 245° Southwest 368 423 12,000  Level Cleveland Center
Fri 08:47:43 AM 42.3097 -83.0933 242° Southwest 375 432 12,000 -53 Level Cleveland Center
Fri 08:48:43 AM 42.2639 -83.1842 236° Southwest 337 388 11,900 -80 Descending Cleveland Center
Fri 08:48:58 AM 42.2450 -83.2003 212° Southwest 281 323 11,900 -700 Level Cleveland Center
Fri 08:49:43 AM 42.1961 -83.2319 206° Southwest 284 327 11,200 -1,486 Descending Cleveland Center
Fri 08:50:43 AM 42.1325 -83.2794 209° Southwest 273 314 9,300 -1,856 Descending Cleveland Center
Fri 08:52:02 AM 42.0478 -83.3431 209° Southwest 254 292 6,900 -2,104 Descending Cleveland Center
Fri 08:52:57 AM 42.0131 -83.3975 229° Southwest 245 282 4,600 -1,623 Descending Cleveland Center
Fri 08:54:04 AM 42.0558 -83.4331 328° Northwest 154 177 3,600 -780 Descending Cleveland Center
Fri 08:55:00 AM 42.0936 -83.4289 North 161 185 3,000 -643 Descending Cleveland Center

Login

Don't have an account? Register now (free) for customized features, flight alerts, and more!